Time;durP1;ratioP1;P1;durP2;ratioP2;P2;SDS_P1;SDS_P2;PMS_P1;PMS_P2;Temp;Humidity;BMP_temperature;BMP_pressure;BME280_temperature;BME280_humidity;BME280_pressure;Samples;Min_cycle;Max_cycle;Signal;HPM_P1;HPM_P2
2021/07/22 00:02:23;;;;;;;13.38;9.50;;;;;;;20.34;52.85;100411.91;4993250;28;20081;-71
2021/07/22 00:04:49;;;;;;;14.23;9.35;;;;;;;20.43;52.64;100417.09;4993783;28;20026;-71
2021/07/22 00:07:14;;;;;;;11.77;8.98;;;;;;;20.09;53.30;100416.34;4987330;28;20500;-70
2021/07/22 00:09:40;;;;;;;13.35;8.73;;;;;;;20.02;53.79;100415.50;4986850;28;20034;-68
2021/07/22 00:12:08;;;;;;;14.25;9.18;;;;;;;20.26;53.01;100413.66;4993268;28;20018;-72
2021/07/22 00:14:34;;;;;;;13.48;7.97;;;;;;;20.14;53.41;100394.50;4992815;28;20023;-70
2021/07/22 00:17:02;;;;;;;12.32;8.45;;;;;;;20.01;53.70;100416.38;4992533;28;20022;-70
2021/07/22 00:19:28;;;;;;;13.48;8.80;;;;;;;19.96;53.98;100411.16;4993053;28;20030;-68
2021/07/22 00:21:53;;;;;;;13.77;9.68;;;;;;;20.04;53.93;100413.75;4992896;28;20439;-72
2021/07/22 00:24:19;;;;;;;11.65;8.82;;;;;;;20.18;53.68;100414.56;4992714;28;20022;-69
2021/07/22 00:26:44;;;;;;;11.85;9.18;;;;;;;20.31;53.25;100412.78;4992748;28;20022;-70
2021/07/22 00:29:10;;;;;;;13.45;8.98;;;;;;;20.67;52.39;100426.59;4992302;28;20096;-72
2021/07/22 00:31:35;;;;;;;17.00;9.55;;;;;;;20.85;51.72;100430.88;4992772;28;20171;-68
2021/07/22 00:34:01;;;;;;;12.63;9.10;;;;;;;20.94;52.02;100418.59;4990099;28;20094;-68
2021/07/22 00:36:26;;;;;;;12.23;9.00;;;;;;;20.88;51.93;100389.78;4991567;28;20030;-70
2021/07/22 00:38:52;;;;;;;12.07;9.15;;;;;;;21.15;51.18;100415.81;4992441;28;20022;-69
2021/07/22 00:41:17;;;;;;;13.60;10.13;;;;;;;21.15;50.85;100410.56;4992416;28;20061;-68
2021/07/22 00:43:43;;;;;;;11.07;8.73;;;;;;;21.15;51.19;100418.44;4987096;28;20014;-71
2021/07/22 00:46:09;;;;;;;13.00;10.10;;;;;;;21.03;51.21;100384.41;4992563;28;20101;-70
2021/07/22 00:48:35;;;;;;;11.93;8.55;;;;;;;21.32;51.09;100415.69;4992156;28;20062;-69
2021/07/22 00:51:00;;;;;;;13.05;9.55;;;;;;;21.28;50.54;100420.97;4991430;28;20482;-70
2021/07/22 00:53:26;;;;;;;13.30;9.10;;;;;;;21.11;50.50;100413.22;4991879;28;20488;-71
2021/07/22 00:55:51;;;;;;;12.27;8.82;;;;;;;20.78;51.15;100389.81;4989319;28;20092;-71
2021/07/22 00:58:17;;;;;;;16.67;10.27;;;;;;;20.78;51.43;100402.94;4989201;28;20026;-72
2021/07/22 01:00:42;;;;;;;12.55;8.88;;;;;;;20.93;51.36;100440.47;4991599;28;20022;-73
2021/07/22 01:03:08;;;;;;;15.20;9.30;;;;;;;20.94;51.43;100429.09;4991720;28;20015;-74
2021/07/22 01:05:33;;;;;;;11.07;8.38;;;;;;;20.85;51.76;100428.25;4991723;28;20030;-71
2021/07/22 01:07:59;;;;;;;14.45;9.00;;;;;;;20.84;51.99;100434.38;4992126;28;20084;-70
2021/07/22 01:10:24;;;;;;;14.38;9.30;;;;;;;20.84;52.19;100439.63;4992152;28;20060;-72
2021/07/22 01:12:50;;;;;;;15.18;9.32;;;;;;;20.62;52.69;100425.75;4991850;28;20137;-74
2021/07/22 01:15:15;;;;;;;12.43;8.32;;;;;;;20.76;52.30;100449.31;4991521;28;20030;-70
2021/07/22 01:17:45;;;;;;;11.75;8.68;;;;;;;20.81;52.21;100450.16;4991436;28;20022;-70
2021/07/22 01:20:18;;;;;;;14.55;8.75;;;;;;;20.23;53.56;100440.78;4991923;28;20080;-72
2021/07/22 01:22:45;;;;;;;16.65;8.88;;;;;;;20.07;54.13;100446.94;4987130;28;20037;-69
2021/07/22 01:25:11;;;;;;;11.98;8.13;;;;;;;20.23;53.44;100432.03;4991408;28;20117;-71
2021/07/22 01:27:37;;;;;;;12.50;9.00;;;;;;;20.76;53.16;100470.31;4988906;28;20027;-76
2021/07/22 01:30:03;;;;;;;12.27;9.02;;;;;;;21.09;53.64;100470.97;4982123;28;20076;-70
2021/07/22 01:32:29;;;;;;;16.83;9.73;;;;;;;21.36;53.67;100468.16;4981028;28;20034;-74
2021/07/22 01:34:55;;;;;;;16.40;9.50;;;;;;;21.44;53.42;100448.84;4989136;28;20034;-72
2021/07/22 01:37:20;;;;;;;18.80;9.18;;;;;;;21.41;53.67;100433.13;4991826;28;20041;-70
2021/07/22 01:39:46;;;;;;;14.43;9.13;;;;;;;21.16;54.25;100463.97;4989728;28;20132;-69
2021/07/22 01:42:11;;;;;;;18.00;10.02;;;;;;;20.97;55.15;100460.56;4992019;28;20026;-70
2021/07/22 01:44:37;;;;;;;23.95;9.63;;;;;;;21.16;55.52;100456.09;4992009;28;20039;-70
2021/07/22 01:47:03;;;;;;;17.15;9.80;;;;;;;20.98;54.72;100462.31;4991751;28;20031;-70
2021/07/22 01:49:29;;;;;;;14.73;9.35;;;;;;;20.49;54.49;100459.03;4991485;28;20399;-70
2021/07/22 01:51:55;;;;;;;12.50;9.35;;;;;;;20.48;54.15;100456.41;4978977;28;20141;-70
2021/07/22 01:54:20;;;;;;;12.40;8.73;;;;;;;20.13;54.66;100460.88;4972142;28;20078;-73
2021/07/22 01:56:46;;;;;;;13.23;8.80;;;;;;;20.08;55.00;100460.03;4971280;28;20027;-70
2021/07/22 01:59:11;;;;;;;14.23;9.27;;;;;;;20.16;55.42;100460.00;4972432;28;20031;-70
2021/07/22 02:01:37;;;;;;;11.73;8.98;;;;;;;20.43;54.51;100460.81;4972428;28;20035;-71
2021/07/22 02:04:05;;;;;;;12.95;9.55;;;;;;;20.43;54.26;100464.28;4972587;28;20023;-70
2021/07/22 02:06:31;;;;;;;12.07;8.35;;;;;;;20.15;55.28;100459.16;4972260;28;20031;-70
2021/07/22 02:08:57;;;;;;;12.60;9.20;;;;;;;20.26;55.00;100466.09;4972005;28;20034;-70
2021/07/22 02:11:24;;;;;;;14.88;9.48;;;;;;;20.03;54.98;100459.19;4972676;28;20500;-70
2021/07/22 02:13:49;;;;;;;12.70;9.00;;;;;;;20.15;54.90;100461.78;4976159;28;20035;-70
2021/07/22 02:16:15;;;;;;;13.02;9.25;;;;;;;20.26;54.25;100438.16;4976103;28;20038;-70
2021/07/22 02:18:40;;;;;;;12.02;9.05;;;;;;;20.51;54.12;100470.38;4975877;28;20053;-69
2021/07/22 02:21:07;;;;;;;13.05;9.15;;;;;;;20.38;53.95;100471.31;4975863;28;20051;-70
2021/07/22 02:23:36;;;;;;;13.85;9.10;;;;;;;20.34;54.32;100466.97;4975594;28;20443;-70
2021/07/22 02:26:04;;;;;;;20.90;11.80;;;;;;;19.82;55.15;100471.38;4974728;28;20027;-70
2021/07/22 02:28:29;;;;;;;22.80;15.30;;;;;;;19.81;55.67;100474.00;4975684;28;20042;-69
2021/07/22 02:30:55;;;;;;;17.70;10.55;;;;;;;20.11;54.97;100467.91;4975402;28;20062;-72
2021/07/22 02:33:21;;;;;;;15.75;10.73;;;;;;;20.45;54.33;100474.75;4975410;28;20037;-74
2021/07/22 02:35:46;;;;;;;16.60;10.00;;;;;;;20.73;54.38;100487.81;4975707;28;20114;-70
2021/07/22 02:38:12;;;;;;;16.38;9.45;;;;;;;20.79;53.02;100495.66;4975437;28;20027;-71
2021/07/22 02:40:39;;;;;;;14.20;9.50;;;;;;;20.43;54.46;100484.41;4974480;28;20022;-69
2021/07/22 02:43:05;;;;;;;12.90;10.50;;;;;;;20.52;53.84;100474.75;4975466;28;20047;-70
2021/07/22 02:45:30;;;;;;;17.08;10.52;;;;;;;20.50;55.15;100501.88;4975430;28;20034;-70
2021/07/22 02:47:56;;;;;;;15.25;10.38;;;;;;;20.45;56.57;100496.63;4975397;28;20031;-70
2021/07/22 02:50:22;;;;;;;14.32;10.30;;;;;;;20.16;59.22;100479.25;4975373;28;20022;-71
2021/07/22 02:52:47;;;;;;;14.13;9.73;;;;;;;20.24;60.52;100500.19;4973849;28;20082;-69
2021/07/22 02:55:13;;;;;;;14.65;9.57;;;;;;;20.16;58.53;100470.50;4975404;28;20022;-72
2021/07/22 02:57:39;;;;;;;13.02;9.25;;;;;;;20.28;56.41;100473.06;4975214;28;20035;-70
2021/07/22 03:00:06;;;;;;;19.27;9.95;;;;;;;20.44;55.84;100504.50;4975059;28;20029;-72
2021/07/22 03:02:32;;;;;;;18.58;9.27;;;;;;;20.41;54.76;100473.94;5007549;28;20216;-70
2021/07/22 03:04:57;;;;;;;13.55;9.80;;;;;;;20.65;54.38;100514.06;5011776;28;20074;-71
2021/07/22 03:07:23;;;;;;;15.20;9.75;;;;;;;20.73;54.32;100493.91;5011605;28;20034;-71
2021/07/22 03:09:49;;;;;;;25.80;9.90;;;;;;;20.80;53.67;100508.75;5011481;28;20038;-70
2021/07/22 03:12:14;;;;;;;14.95;9.70;;;;;;;20.78;54.47;100502.63;5011663;28;20474;-70
2021/07/22 03:14:40;;;;;;;16.95;9.68;;;;;;;20.67;55.10;100525.41;5011644;28;20125;-72
2021/07/22 03:17:05;;;;;;;16.92;9.38;;;;;;;20.50;54.60;100500.09;5011516;28;20093;-70
2021/07/22 03:19:31;;;;;;;22.40;10.85;;;;;;;20.52;55.67;100501.00;5011597;28;20111;-71
2021/07/22 03:21:56;;;;;;;16.65;9.75;;;;;;;20.67;54.40;100513.16;5011273;28;20026;-70
2021/07/22 03:24:25;;;;;;;18.35;10.00;;;;;;;20.69;55.09;100519.25;5010952;28;20038;-70
2021/07/22 03:26:50;;;;;;;19.45;10.43;;;;;;;20.13;56.30;100510.69;5011213;28;20048;-70
2021/07/22 03:29:16;;;;;;;15.38;8.95;;;;;;;19.93;56.85;100520.34;5011279;28;20030;-70
2021/07/22 03:31:41;;;;;;;21.30;10.05;;;;;;;20.17;56.77;100515.03;4994926;28;20423;-70
2021/07/22 03:34:10;;;;;;;15.15;9.35;;;;;;;19.97;57.62;100524.69;5011120;28;20037;-70
2021/07/22 03:36:35;;;;;;;18.20;12.02;;;;;;;19.63;58.17;100528.16;5011176;28;20033;-70
2021/07/22 03:39:01;;;;;;;20.05;12.15;;;;;;;19.77;57.75;100529.91;5008993;28;20443;-70
2021/07/22 03:41:27;;;;;;;18.00;12.70;;;;;;;19.49;59.46;100537.72;4993630;28;20050;-70
2021/07/22 03:43:52;;;;;;;22.38;12.93;;;;;;;19.29;60.26;100538.59;4993728;28;20026;-70
2021/07/22 03:46:18;;;;;;;21.85;12.65;;;;;;;19.32;60.25;100533.34;4993793;28;20034;-70
2021/07/22 03:48:44;;;;;;;21.67;12.70;;;;;;;19.19;60.65;100516.75;4993562;28;20053;-70
2021/07/22 03:51:12;;;;;;;19.92;11.15;;;;;;;19.27;60.87;100529.84;4993270;28;20496;-71
2021/07/22 03:53:38;;;;;;;14.93;9.98;;;;;;;19.35;60.42;100537.72;4993633;28;20038;-70
2021/07/22 03:56:04;;;;;;;20.75;10.73;;;;;;;19.30;60.93;100553.44;4993559;28;20026;-70
2021/07/22 03:58:29;;;;;;;18.23;10.70;;;;;;;19.38;61.26;100551.69;4993647;28;20041;-70
2021/07/22 04:00:57;;;;;;;16.70;10.25;;;;;;;19.38;61.49;100548.22;5024211;28;20046;-70
2021/07/22 04:03:25;;;;;;;14.75;9.60;;;;;;;19.28;61.31;100549.03;4993185;28;20033;-74
2021/07/22 04:05:52;;;;;;;19.63;10.20;;;;;;;19.53;61.74;100563.06;4993165;28;20033;-70
2021/07/22 04:08:18;;;;;;;18.58;10.93;;;;;;;19.63;61.02;100554.34;4993225;28;20495;-70
2021/07/22 04:10:44;;;;;;;21.23;11.32;;;;;;;19.71;61.68;100560.47;4993517;28;20411;-70
2021/07/22 04:13:10;;;;;;;25.90;11.07;;;;;;;19.85;62.17;100557.00;4993347;28;20031;-70
2021/07/22 04:15:35;;;;;;;18.83;10.57;;;;;;;19.99;62.88;100559.63;4993095;28;20118;-74
2021/07/22 04:18:01;;;;;;;17.15;10.05;;;;;;;20.10;62.08;100555.25;4992798;28;20038;-70
2021/07/22 04:20:28;;;;;;;19.83;10.15;;;;;;;20.23;61.50;100552.63;4993389;28;20034;-74
2021/07/22 04:22:57;;;;;;;18.60;10.00;;;;;;;20.32;60.35;100542.09;4993156;28;20030;-70
2021/07/22 04:25:23;;;;;;;23.00;12.20;;;;;;;20.61;59.33;100560.41;4993016;28;20027;-70
2021/07/22 04:27:48;;;;;;;19.27;9.95;;;;;;;20.81;58.32;100560.38;4992788;28;20100;-72
2021/07/22 04:30:14;;;;;;;15.80;9.55;;;;;;;20.91;57.88;100563.84;4992780;28;20033;-70
2021/07/22 04:32:39;;;;;;;18.58;9.07;;;;;;;21.09;57.42;100560.22;4992783;28;20037;-70
2021/07/22 04:35:08;;;;;;;13.90;9.40;;;;;;;21.21;56.83;100563.66;4992215;28;20038;-73
2021/07/22 04:37:37;;;;;;;13.38;8.30;;;;;;;21.02;58.34;100534.88;4992832;28;20030;-70
2021/07/22 04:40:06;;;;;;;18.45;8.50;;;;;;;21.21;58.12;100567.19;4992855;28;20057;-71
2021/07/22 04:42:32;;;;;;;13.75;8.15;;;;;;;20.98;58.61;100562.91;4992669;28;20026;-70
2021/07/22 04:44:57;;;;;;;15.73;8.32;;;;;;;20.74;59.15;100526.28;4992633;28;20034;-70
2021/07/22 04:47:23;;;;;;;10.57;6.82;;;;;;;20.88;58.67;100562.97;4992394;28;20019;-71
2021/07/22 04:49:48;;;;;;;11.60;6.40;;;;;;;21.09;58.82;100572.50;4992647;28;20030;-70
2021/07/22 04:52:14;;;;;;;12.90;7.30;;;;;;;21.26;58.53;100580.25;4992802;28;20104;-71
2021/07/22 04:54:39;;;;;;;10.38;7.28;;;;;;;21.25;60.16;100579.41;4992367;28;20097;-70
2021/07/22 04:57:05;;;;;;;15.38;7.97;;;;;;;21.34;58.87;100581.09;4992307;28;20033;-70
2021/07/22 04:59:30;;;;;;;12.48;6.82;;;;;;;21.37;57.80;100572.34;4992354;28;20030;-70
2021/07/22 05:01:56;;;;;;;9.45;6.70;;;;;;;21.06;57.90;100502.50;4992153;28;20117;-72
2021/07/22 05:04:21;;;;;;;14.07;6.40;;;;;;;21.52;57.30;100569.63;4992521;28;20031;-70
2021/07/22 05:06:46;;;;;;;9.52;5.10;;;;;;;21.58;56.45;100567.00;4992140;28;20038;-70
2021/07/22 05:09:12;;;;;;;7.95;5.15;;;;;;;21.52;56.45;100568.75;4992237;28;20022;-69
2021/07/22 05:11:37;;;;;;;8.90;5.50;;;;;;;21.14;57.18;100571.56;4992259;28;20165;-70
2021/07/22 05:14:03;;;;;;;8.70;4.80;;;;;;;21.13;57.41;100572.47;4992251;28;20053;-70
2021/07/22 05:16:28;;;;;;;10.32;4.97;;;;;;;21.01;57.75;100527.91;4991964;28;20032;-70
2021/07/22 05:18:54;;;;;;;11.70;5.05;;;;;;;21.41;57.08;100580.19;4991941;28;20034;-70
2021/07/22 05:21:19;;;;;;;8.90;4.93;;;;;;;21.56;57.23;100575.75;4992074;28;20026;-70
2021/07/22 05:23:45;;;;;;;9.20;4.85;;;;;;;21.76;56.52;100570.38;4991893;28;20041;-71
2021/07/22 05:26:11;;;;;;;9.63;4.60;;;;;;;21.83;55.52;100572.03;5022692;28;20042;-73
2021/07/22 05:28:38;;;;;;;9.13;4.07;;;;;;;21.56;55.41;100544.22;4991992;28;20136;-70
2021/07/22 05:31:06;;;;;;;11.25;5.00;;;;;;;21.95;55.09;100578.97;4991813;28;20037;-70
2021/07/22 05:33:32;;;;;;;13.30;4.88;;;;;;;22.09;54.67;100578.84;4992037;28;20026;-70
2021/07/22 05:36:02;;;;;;;10.43;5.53;;;;;;;22.13;54.01;100564.78;4990770;28;20031;-69
2021/07/22 05:38:32;;;;;;;11.82;5.75;;;;;;;22.30;53.71;100586.53;4989867;28;20086;-70
2021/07/22 05:40:59;;;;;;;14.48;5.35;;;;;;;22.23;56.27;100582.22;4991827;28;20499;-69
2021/07/22 05:43:28;;;;;;;9.95;5.47;;;;;;;21.79;57.75;100560.72;4989339;28;20034;-69
2021/07/22 05:45:55;;;;;;;16.73;6.20;;;;;;;21.90;56.47;100559.75;4993222;28;20040;-70
2021/07/22 05:48:20;;;;;;;13.43;6.47;;;;;;;22.16;55.54;100574.38;4994695;28;20089;-70
2021/07/22 05:50:47;;;;;;;12.40;6.00;;;;;;;22.36;55.96;100580.34;4995344;28;20062;-70
2021/07/22 05:53:13;;;;;;;12.65;6.43;;;;;;;22.45;57.31;100577.66;4995730;28;20480;-70
2021/07/22 05:55:38;;;;;;;10.68;5.90;;;;;;;22.53;56.61;100574.06;4995828;28;20033;-70
2021/07/22 05:58:04;;;;;;;10.13;5.97;;;;;;;22.52;55.69;100567.03;4995844;28;20061;-71
2021/07/22 06:00:29;;;;;;;12.77;6.10;;;;;;;22.59;54.77;100584.50;4991503;28;20086;-70
2021/07/22 06:02:54;;;;;;;13.05;6.32;;;;;;;22.38;55.26;100554.03;4989147;28;20034;-72
2021/07/22 06:05:23;;;;;;;17.73;6.72;;;;;;;22.50;57.10;100585.50;4985504;28;20069;-72
2021/07/22 06:07:48;;;;;;;9.32;6.20;;;;;;;22.45;56.05;100585.56;4999669;28;20511;-72
2021/07/22 06:10:14;;;;;;;9.68;5.72;;;;;;;22.52;56.87;100582.84;4986209;28;20113;-70
2021/07/22 06:12:40;;;;;;;11.77;5.95;;;;;;;22.50;55.77;100582.00;4984909;28;20019;-69
2021/07/22 06:15:06;;;;;;;9.02;5.80;;;;;;;22.11;58.40;100549.03;4995643;28;20034;-71
2021/07/22 06:17:35;;;;;;;8.63;5.85;;;;;;;22.48;57.52;100576.75;4995372;28;20030;-72
2021/07/22 06:20:02;;;;;;;20.65;6.63;;;;;;;22.70;55.61;100582.63;4989805;28;20033;-75
2021/07/22 06:22:27;;;;;;;10.65;6.05;;;;;;;22.94;54.17;100577.97;4987117;28;20027;-71
2021/07/22 06:24:52;;;;;;;9.70;6.43;;;;;;;23.01;53.43;100545.41;4995014;28;20026;-68
2021/07/22 06:27:18;;;;;;;10.90;6.55;;;;;;;23.38;55.11;100583.59;4993202;28;20170;-68
2021/07/22 06:29:44;;;;;;;11.07;6.40;;;;;;;23.52;54.53;100588.66;4995138;28;20121;-69
2021/07/22 06:32:10;;;;;;;9.18;7.03;;;;;;;23.32;53.30;100547.66;4995115;28;20022;-74
2021/07/22 06:34:35;;;;;;;10.00;5.95;;;;;;;23.29;54.87;100587.22;4995065;28;20041;-69
2021/07/22 06:37:01;;;;;;;9.15;6.45;;;;;;;23.26;55.56;100580.22;4994963;28;20034;-68
2021/07/22 06:39:32;;;;;;;9.88;6.28;;;;;;;23.40;55.53;100574.75;4994984;28;20030;-69
2021/07/22 06:41:58;;;;;;;10.10;6.55;;;;;;;23.32;55.16;100563.44;4994654;28;20022;-69
2021/07/22 06:44:23;;;;;;;8.73;6.05;;;;;;;23.43;56.05;100579.13;4991497;28;20519;-74
2021/07/22 06:46:49;;;;;;;13.80;6.13;;;;;;;23.43;54.70;100566.78;4994897;28;20018;-69
2021/07/22 06:49:14;;;;;;;11.75;6.40;;;;;;;23.38;54.58;100567.78;4994845;28;20113;-68
2021/07/22 06:51:40;;;;;;;10.77;6.75;;;;;;;23.39;55.24;100567.75;4994816;28;20046;-68
2021/07/22 06:54:08;;;;;;;8.60;6.60;;;;;;;23.47;55.65;100565.00;4994638;28;20018;-68
2021/07/22 06:56:34;;;;;;;9.18;6.63;;;;;;;23.67;54.31;100559.41;4994454;28;20030;-70
2021/07/22 06:58:59;;;;;;;8.80;6.13;;;;;;;23.93;53.99;100565.19;4993959;28;20031;-69
2021/07/22 07:01:25;;;;;;;10.20;6.88;;;;;;;24.11;56.13;100564.84;4994623;28;20092;-69
2021/07/22 07:03:50;;;;;;;8.43;5.97;;;;;;;24.25;53.15;100556.72;4994717;28;20022;-71
2021/07/22 07:06:15;;;;;;;8.55;4.95;;;;;;;24.19;50.51;100557.69;4994355;28;20129;-68
2021/07/22 07:08:41;;;;;;;8.52;5.43;;;;;;;24.30;52.19;100556.59;4994499;28;20495;-69
2021/07/22 07:11:07;;;;;;;9.30;5.25;;;;;;;24.30;52.18;100546.94;4994399;28;20100;-72
2021/07/22 07:13:33;;;;;;;7.82;5.10;;;;;;;24.04;51.70;100515.78;4994512;28;20026;-69
2021/07/22 07:15:58;;;;;;;8.10;5.55;;;;;;;24.04;51.16;100550.91;4994072;28;20033;-71
2021/07/22 07:18:24;;;;;;;9.52;5.72;;;;;;;24.11;52.09;100549.03;4988415;28;20106;-69
2021/07/22 07:20:49;;;;;;;8.57;6.05;;;;;;;24.06;51.93;100520.13;4983192;28;20432;-71
2021/07/22 07:23:14;;;;;;;8.32;6.40;;;;;;;24.31;50.99;100553.97;4984964;28;20069;-69
2021/07/22 07:25:40;;;;;;;7.82;5.97;;;;;;;23.86;50.78;100525.72;4983917;28;20030;-69
2021/07/22 07:28:05;;;;;;;16.48;5.97;;;;;;;24.15;51.70;100534.03;4983315;28;20026;-70
2021/07/22 07:30:31;;;;;;;8.23;5.65;;;;;;;24.52;52.20;100538.59;4985211;28;20027;-69
2021/07/22 07:32:57;;;;;;;7.72;5.68;;;;;;;24.87;51.68;100543.22;4983375;28;20073;-72
2021/07/22 07:35:26;;;;;;;6.57;5.13;;;;;;;25.03;49.10;100541.09;4983655;28;20030;-70
2021/07/22 07:37:52;;;;;;;7.85;4.95;;;;;;;25.28;48.85;100548.44;4981947;28;20058;-70
2021/07/22 07:40:18;;;;;;;8.70;5.20;;;;;;;25.40;49.74;100549.13;4984054;28;20122;-69
2021/07/22 07:42:43;;;;;;;8.55;5.45;;;;;;;25.42;50.21;100549.94;4980802;28;20068;-71
2021/07/22 07:45:29;;;;;;;7.38;4.40;;;;;;;25.55;48.07;100543.47;4990915;28;20093;-69
2021/07/22 07:47:55;;;;;;;10.45;4.20;;;;;;;25.65;45.57;100537.03;4982356;28;20311;-71
2021/07/22 07:50:20;;;;;;;6.53;4.50;;;;;;;25.48;46.57;100544.53;4990794;28;20489;-70
2021/07/22 07:52:46;;;;;;;6.93;4.25;;;;;;;25.54;46.22;100554.09;4979937;28;20043;-72
2021/07/22 07:55:13;;;;;;;6.85;4.35;;;;;;;25.86;48.77;100553.28;4982066;28;20137;-69
2021/07/22 07:57:38;;;;;;;6.75;4.40;;;;;;;25.81;45.52;100544.63;4981417;28;20531;-69
2021/07/22 08:00:06;;;;;;;10.32;5.00;;;;;;;25.95;45.98;100546.91;4980510;28;20038;-69
2021/07/22 08:02:31;;;;;;;6.35;4.28;;;;;;;25.99;45.05;100541.50;4988415;28;20049;-69
2021/07/22 08:04:57;;;;;;;5.70;3.67;;;;;;;26.25;44.91;100539.94;4991188;28;20477;-69
2021/07/22 08:07:27;;;;;;;6.85;4.00;;;;;;;26.16;45.29;100533.13;4990747;28;20026;-69
2021/07/22 08:09:53;;;;;;;5.35;3.38;;;;;;;26.17;43.49;100534.00;4989655;28;20045;-68
2021/07/22 08:12:19;;;;;;;5.10;3.33;;;;;;;26.13;43.12;100517.34;4990640;28;20031;-72
2021/07/22 08:14:46;;;;;;;8.18;3.22;;;;;;;26.27;42.11;100532.84;4988119;28;20060;-71
2021/07/22 08:17:17;;;;;;;6.32;3.08;;;;;;;26.03;41.73;100507.00;4984269;28;20042;-71
2021/07/22 08:19:43;;;;;;;5.22;3.55;;;;;;;25.83;42.71;100496.06;4988361;28;20615;-70
2021/07/22 08:22:11;;;;;;;5.78;3.58;;;;;;;26.20;42.57;100522.47;4987693;28;20138;-69
2021/07/22 08:24:37;;;;;;;8.30;3.50;;;;;;;26.27;44.06;100522.25;4982443;28;20511;-71
2021/07/22 08:27:03;;;;;;;7.88;3.50;;;;;;;26.20;42.62;100498.66;4982933;28;20121;-71
2021/07/22 08:29:29;;;;;;;5.13;3.40;;;;;;;26.23;44.08;100531.19;4983985;28;20122;-70
2021/07/22 08:31:54;;;;;;;7.43;3.38;;;;;;;26.24;41.70;100522.31;4986477;28;20018;-70
2021/07/22 08:34:20;;;;;;;6.68;3.40;;;;;;;26.14;41.31;100527.03;4992344;28;20029;-68
2021/07/22 08:36:47;;;;;;;8.07;3.47;;;;;;;25.98;42.25;100492.13;4992188;28;20019;-72
2021/07/22 08:39:13;;;;;;;7.63;3.50;;;;;;;26.26;42.75;100520.53;4992488;28;20027;-69
2021/07/22 08:41:46;;;;;;;7.82;3.28;;;;;;;26.35;41.77;100534.41;4992226;28;20041;-68
2021/07/22 08:44:13;;;;;;;12.00;3.67;;;;;;;26.36;41.46;100533.50;4992161;28;20025;-69
2021/07/22 08:46:42;;;;;;;5.93;3.15;;;;;;;26.24;40.66;100530.28;4992448;28;20045;-69
2021/07/22 08:49:08;;;;;;;5.82;3.42;;;;;;;26.41;41.72;100532.47;4990493;28;20110;-68
2021/07/22 08:51:34;;;;;;;8.50;3.50;;;;;;;26.38;41.16;100529.03;4980639;28;20050;-72
2021/07/22 08:54:00;;;;;;;5.85;3.25;;;;;;;26.46;40.95;100533.19;4991095;28;20030;-74
2021/07/22 08:56:26;;;;;;;9.55;3.45;;;;;;;26.60;41.25;100526.66;4985534;28;20070;-71
2021/07/22 08:58:52;;;;;;;5.32;2.78;;;;;;;26.53;40.35;100501.25;4982254;28;20050;-71
2021/07/22 09:01:21;;;;;;;5.13;3.03;;;;;;;26.73;39.86;100535.97;4983379;28;20030;-72
2021/07/22 09:03:47;;;;;;;7.85;3.10;;;;;;;26.97;40.61;100525.59;4982261;28;20045;-72
2021/07/22 09:06:14;;;;;;;4.28;3.00;;;;;;;26.96;40.07;100515.91;4981448;28;20500;-70
2021/07/22 09:08:40;;;;;;;6.82;3.20;;;;;;;27.08;38.91;100522.63;4981059;28;20050;-72
2021/07/22 09:11:10;;;;;;;7.22;2.95;;;;;;;27.38;39.29;100502.22;4982662;28;20061;-71
2021/07/22 09:13:36;;;;;;;5.05;3.40;;;;;;;27.43;38.88;100510.06;4964851;28;20034;-71
2021/07/22 09:16:04;;;;;;;6.25;3.15;;;;;;;27.23;38.15;100515.97;4981227;28;20051;-72
2021/07/22 09:18:39;;;;;;;4.70;3.13;;;;;;;26.99;40.99;100473.41;4981997;28;20069;-71
2021/07/22 09:21:22;;;;;;;5.50;2.80;;;;;;;27.00;39.77;100458.38;4981706;28;20081;-73
2021/07/22 09:24:11;;;;;;;4.97;3.20;;;;;;;27.02;39.72;100498.97;4980525;28;20388;-73
2021/07/22 09:26:39;;;;;;;5.57;2.75;;;;;;;26.88;39.86;100487.00;4980275;28;20050;-72
2021/07/22 09:29:08;;;;;;;8.13;2.80;;;;;;;27.04;38.28;100495.34;4982390;28;20019;-69
2021/07/22 09:31:35;;;;;;;5.47;2.97;;;;;;;27.42;38.06;100489.75;4984313;28;20062;-73
2021/07/22 09:34:01;;;;;;;5.10;2.97;;;;;;;27.59;38.18;100479.44;4984806;28;20052;-73
2021/07/22 09:36:27;;;;;;;4.00;2.67;;;;;;;27.71;39.29;100490.56;4982195;28;20080;-72
2021/07/22 09:38:52;;;;;;;4.43;2.70;;;;;;;27.99;39.61;100490.47;4982088;28;20022;-73
2021/07/22 09:41:19;;;;;;;7.50;3.20;;;;;;;28.08;38.81;100468.09;4978524;28;20053;-70
2021/07/22 09:43:45;;;;;;;8.07;3.08;;;;;;;28.11;37.00;100488.34;4981863;28;20014;-72
2021/07/22 09:46:11;;;;;;;6.53;3.35;;;;;;;27.88;37.06;100479.38;4982481;28;20034;-71
2021/07/22 09:48:39;;;;;;;4.03;2.65;;;;;;;28.01;36.49;100485.97;4980591;28;20015;-73
2021/07/22 09:51:05;;;;;;;3.13;2.47;;;;;;;28.33;38.90;100483.13;4982013;28;20494;-69
2021/07/22 09:53:32;;;;;;;5.35;2.70;;;;;;;28.07;36.95;100479.63;4982363;28;20042;-71
2021/07/22 09:55:57;;;;;;;6.05;3.00;;;;;;;28.32;39.02;100484.03;4980827;28;20019;-73
2021/07/22 09:58:23;;;;;;;4.13;2.60;;;;;;;28.39;36.47;100482.88;4982571;28;20464;-72
2021/07/22 10:00:55;;;;;;;7.18;2.35;;;;;;;28.03;37.03;100425.75;4982187;28;20019;-71
2021/07/22 10:03:23;;;;;;;4.97;2.80;;;;;;;28.61;37.85;100474.94;4984582;28;20027;-71
2021/07/22 10:05:54;;;;;;;4.25;2.78;;;;;;;28.91;36.16;100480.03;4984627;28;20505;-71
2021/07/22 10:08:20;;;;;;;4.25;2.47;;;;;;;28.75;34.82;100447.03;4975846;28;20516;-70
2021/07/22 10:10:52;;;;;;;4.75;2.90;;;;;;;28.65;35.66;100475.72;4996384;28;20078;-70
2021/07/22 10:13:25;;;;;;;8.60;2.75;;;;;;;28.54;35.72;100465.50;4980033;28;20034;-72
2021/07/22 10:15:51;;;;;;;6.97;2.38;;;;;;;27.98;35.02;100438.31;4973221;28;20085;-71
2021/07/22 10:18:23;;;;;;;3.60;2.28;;;;;;;27.92;35.74;100475.69;4975678;28;20027;-71
2021/07/22 10:20:53;;;;;;;5.45;2.55;;;;;;;27.76;36.34;100468.28;4980745;28;20101;-68
2021/07/22 10:23:20;;;;;;;4.55;2.55;;;;;;;27.89;37.01;100441.31;4987846;28;20044;-71
2021/07/22 10:25:49;;;;;;;8.93;2.38;;;;;;;27.83;37.13;100470.72;4989661;28;20030;-70
2021/07/22 10:28:17;;;;;;;10.40;2.60;;;;;;;27.60;38.00;100469.69;4985480;28;20038;-70
2021/07/22 10:30:45;;;;;;;5.38;2.92;;;;;;;27.93;37.40;100443.78;4987172;28;20042;-71
2021/07/22 10:33:12;;;;;;;6.38;2.38;;;;;;;28.45;37.34;100441.94;4986580;28;20078;-70
2021/07/22 10:35:39;;;;;;;3.83;2.80;;;;;;;29.05;37.85;100467.06;4987701;28;20026;-70
2021/07/22 10:38:27;;;;;;;7.70;2.72;;;;;;;29.34;35.26;100453.56;4968461;28;20049;-67
2021/07/22 10:40:57;;;;;;;6.40;2.35;;;;;;;29.23;33.01;100467.25;4994802;28;20026;-69
2021/07/22 10:43:42;;;;;;;4.38;2.33;;;;;;;29.22;33.79;100465.50;4992408;28;20047;-70
2021/07/22 10:46:12;;;;;;;6.88;2.80;;;;;;;28.59;35.49;100452.91;4995190;28;20034;-71
2021/07/22 10:48:40;;;;;;;5.63;2.60;;;;;;;28.52;36.38;100468.19;4993273;28;20463;-69
2021/07/22 10:51:12;;;;;;;4.90;2.60;;;;;;;28.01;35.84;100438.19;4988735;28;20047;-73
2021/07/22 10:53:42;;;;;;;4.10;2.50;;;;;;;28.49;35.67;100462.16;4988925;28;20049;-70
2021/07/22 10:56:13;;;;;;;3.83;2.53;;;;;;;28.71;35.57;100468.41;4983372;28;20085;-70
2021/07/22 10:58:39;;;;;;;3.70;2.47;;;;;;;29.12;33.11;100472.13;4983482;28;20126;-69
2021/07/22 11:01:06;;;;;;;3.67;2.38;;;;;;;29.35;34.95;100465.94;4979138;28;20463;-70
2021/07/22 11:03:35;;;;;;;5.28;2.10;;;;;;;29.20;35.24;100472.72;4985609;28;20109;-70
2021/07/22 11:06:01;;;;;;;4.25;2.33;;;;;;;28.88;34.86;100483.69;4985605;28;20030;-71
2021/07/22 11:08:32;;;;;;;5.75;2.47;;;;;;;28.62;35.58;100473.19;4987498;28;20043;-70
2021/07/22 11:11:03;;;;;;;3.38;2.20;;;;;;;28.45;36.22;100465.84;4984145;28;20041;-68
2021/07/22 11:13:40;;;;;;;5.25;2.25;;;;;;;28.46;34.43;100467.59;4983758;28;20036;-68
2021/07/22 11:16:22;;;;;;;4.72;2.35;;;;;;;28.39;34.63;100469.63;4984082;28;20026;-69
2021/07/22 11:19:14;;;;;;;4.47;2.22;;;;;;;29.20;35.91;100478.88;4983637;28;20097;-69